sensor_id;sensor_type;location;lat;lon;timestamp;P1;durP1;ratioP1;P2;durP2;ratioP2
75628;SDS011;64213;46.452;16.994;2023-03-15T00:02:21;9.27;;;2.12;;
75628;SDS011;64213;46.452;16.994;2023-03-15T00:05:23;7.32;;;2.35;;
75628;SDS011;64213;46.452;16.994;2023-03-15T00:08:26;7.37;;;1.60;;
75628;SDS011;64213;46.452;16.994;2023-03-15T00:11:29;6.07;;;1.40;;
75628;SDS011;64213;46.452;16.994;2023-03-15T00:14:31;5.55;;;1.20;;
75628;SDS011;64213;46.452;16.994;2023-03-15T00:17:33;6.45;;;1.52;;
75628;SDS011;64213;46.452;16.994;2023-03-15T00:20:37;7.47;;;1.60;;
75628;SDS011;64213;46.452;16.994;2023-03-15T00:23:39;5.13;;;1.10;;
75628;SDS011;64213;46.452;16.994;2023-03-15T00:26:41;2.23;;;0.50;;
75628;SDS011;64213;46.452;16.994;2023-03-15T00:29:43;4.12;;;0.68;;
75628;SDS011;64213;46.452;16.994;2023-03-15T00:32:45;4.80;;;0.60;;
75628;SDS011;64213;46.452;16.994;2023-03-15T00:35:47;4.35;;;0.90;;
75628;SDS011;64213;46.452;16.994;2023-03-15T00:38:50;3.87;;;0.60;;
75628;SDS011;64213;46.452;16.994;2023-03-15T00:41:54;5.43;;;0.90;;
75628;SDS011;64213;46.452;16.994;2023-03-15T00:44:57;4.30;;;0.90;;
75628;SDS011;64213;46.452;16.994;2023-03-15T00:48:00;4.90;;;0.73;;
75628;SDS011;64213;46.452;16.994;2023-03-15T00:54:08;3.23;;;0.60;;
75628;SDS011;64213;46.452;16.994;2023-03-15T00:57:14;2.70;;;0.53;;
75628;SDS011;64213;46.452;16.994;2023-03-15T01:00:17;4.32;;;0.70;;
75628;SDS011;64213;46.452;16.994;2023-03-15T01:03:26;4.70;;;0.60;;
75628;SDS011;64213;46.452;16.994;2023-03-15T01:06:29;2.62;;;0.40;;
75628;SDS011;64213;46.452;16.994;2023-03-15T01:09:31;3.33;;;0.50;;
75628;SDS011;64213;46.452;16.994;2023-03-15T01:12:34;3.20;;;0.40;;
75628;SDS011;64213;46.452;16.994;2023-03-15T01:15:36;3.90;;;0.70;;
75628;SDS011;64213;46.452;16.994;2023-03-15T01:18:38;4.68;;;0.60;;
75628;SDS011;64213;46.452;16.994;2023-03-15T01:21:41;4.43;;;0.50;;
75628;SDS011;64213;46.452;16.994;2023-03-15T01:24:44;2.47;;;0.43;;
75628;SDS011;64213;46.452;16.994;2023-03-15T01:27:47;5.50;;;0.60;;
75628;SDS011;64213;46.452;16.994;2023-03-15T01:30:51;2.30;;;0.40;;
75628;SDS011;64213;46.452;16.994;2023-03-15T01:33:53;3.72;;;0.60;;
75628;SDS011;64213;46.452;16.994;2023-03-15T01:36:56;2.75;;;0.50;;
75628;SDS011;64213;46.452;16.994;2023-03-15T01:39:59;3.80;;;0.50;;
75628;SDS011;64213;46.452;16.994;2023-03-15T01:43:23;2.17;;;0.30;;
75628;SDS011;64213;46.452;16.994;2023-03-15T01:46:29;1.20;;;0.30;;
75628;SDS011;64213;46.452;16.994;2023-03-15T01:49:36;2.28;;;0.37;;
75628;SDS011;64213;46.452;16.994;2023-03-15T01:52:38;2.92;;;0.40;;
75628;SDS011;64213;46.452;16.994;2023-03-15T01:55:43;2.50;;;0.40;;
75628;SDS011;64213;46.452;16.994;2023-03-15T01:58:45;1.97;;;0.33;;
75628;SDS011;64213;46.452;16.994;2023-03-15T02:01:49;1.87;;;0.30;;
75628;SDS011;64213;46.452;16.994;2023-03-15T02:04:56;1.05;;;0.20;;
75628;SDS011;64213;46.452;16.994;2023-03-15T02:08:10;1.08;;;0.20;;
75628;SDS011;64213;46.452;16.994;2023-03-15T02:11:20;2.30;;;0.20;;
75628;SDS011;64213;46.452;16.994;2023-03-15T02:14:25;1.00;;;0.10;;
75628;SDS011;64213;46.452;16.994;2023-03-15T02:17:36;1.42;;;0.20;;
75628;SDS011;64213;46.452;16.994;2023-03-15T02:24:24;1.08;;;0.20;;
75628;SDS011;64213;46.452;16.994;2023-03-15T03:39:02;5.43;;;1.03;;
75628;SDS011;64213;46.452;16.994;2023-03-15T03:42:05;6.37;;;1.48;;
75628;SDS011;64213;46.452;16.994;2023-03-15T03:45:07;5.55;;;1.77;;
75628;SDS011;64213;46.452;16.994;2023-03-15T03:48:10;6.10;;;1.23;;
75628;SDS011;64213;46.452;16.994;2023-03-15T03:51:12;6.00;;;1.33;;
75628;SDS011;64213;46.452;16.994;2023-03-15T03:54:14;5.47;;;1.40;;
75628;SDS011;64213;46.452;16.994;2023-03-15T03:57:18;5.90;;;1.30;;
75628;SDS011;64213;46.452;16.994;2023-03-15T04:00:21;7.00;;;2.42;;
75628;SDS011;64213;46.452;16.994;2023-03-15T04:03:24;6.72;;;1.45;;
75628;SDS011;64213;46.452;16.994;2023-03-15T04:06:29;5.60;;;1.30;;
75628;SDS011;64213;46.452;16.994;2023-03-15T04:09:32;4.30;;;0.90;;
75628;SDS011;64213;46.452;16.994;2023-03-15T04:12:38;4.28;;;0.98;;
75628;SDS011;64213;46.452;16.994;2023-03-15T04:15:40;3.92;;;0.77;;
75628;SDS011;64213;46.452;16.994;2023-03-15T04:18:42;7.20;;;1.12;;
75628;SDS011;64213;46.452;16.994;2023-03-15T04:21:44;6.62;;;1.58;;
75628;SDS011;64213;46.452;16.994;2023-03-15T04:24:49;7.27;;;1.63;;
75628;SDS011;64213;46.452;16.994;2023-03-15T04:27:52;8.82;;;3.00;;
75628;SDS011;64213;46.452;16.994;2023-03-15T04:31:00;6.43;;;1.85;;
75628;SDS011;64213;46.452;16.994;2023-03-15T04:34:03;5.05;;;1.75;;
75628;SDS011;64213;46.452;16.994;2023-03-15T04:37:06;4.37;;;1.10;;
75628;SDS011;64213;46.452;16.994;2023-03-15T04:40:08;4.93;;;0.93;;
75628;SDS011;64213;46.452;16.994;2023-03-15T04:43:13;5.87;;;1.23;;
75628;SDS011;64213;46.452;16.994;2023-03-15T04:46:15;3.03;;;0.52;;
75628;SDS011;64213;46.452;16.994;2023-03-15T04:49:17;4.65;;;0.57;;
75628;SDS011;64213;46.452;16.994;2023-03-15T04:52:19;3.87;;;0.50;;
75628;SDS011;64213;46.452;16.994;2023-03-15T04:55:21;4.27;;;0.60;;
75628;SDS011;64213;46.452;16.994;2023-03-15T04:58:23;3.92;;;0.73;;
75628;SDS011;64213;46.452;16.994;2023-03-15T05:01:29;1.75;;;0.32;;
75628;SDS011;64213;46.452;16.994;2023-03-15T05:04:32;3.87;;;0.70;;
75628;SDS011;64213;46.452;16.994;2023-03-15T05:07:35;2.47;;;0.50;;
75628;SDS011;64213;46.452;16.994;2023-03-15T05:10:37;2.90;;;0.40;;
75628;SDS011;64213;46.452;16.994;2023-03-15T05:13:39;1.45;;;0.30;;
75628;SDS011;64213;46.452;16.994;2023-03-15T05:16:41;2.12;;;0.45;;
75628;SDS011;64213;46.452;16.994;2023-03-15T05:19:43;3.62;;;0.75;;
75628;SDS011;64213;46.452;16.994;2023-03-15T05:22:47;3.28;;;0.60;;
75628;SDS011;64213;46.452;16.994;2023-03-15T05:25:50;3.63;;;0.70;;
75628;SDS011;64213;46.452;16.994;2023-03-15T05:28:56;2.30;;;0.40;;
75628;SDS011;64213;46.452;16.994;2023-03-15T05:31:58;3.50;;;0.55;;
75628;SDS011;64213;46.452;16.994;2023-03-15T05:35:00;2.75;;;0.47;;
75628;SDS011;64213;46.452;16.994;2023-03-15T05:38:03;1.90;;;0.45;;
75628;SDS011;64213;46.452;16.994;2023-03-15T05:41:07;1.80;;;0.40;;
75628;SDS011;64213;46.452;16.994;2023-03-15T05:44:10;3.28;;;0.60;;
75628;SDS011;64213;46.452;16.994;2023-03-15T05:47:12;3.70;;;0.60;;
75628;SDS011;64213;46.452;16.994;2023-03-15T05:50:15;3.67;;;0.70;;
75628;SDS011;64213;46.452;16.994;2023-03-15T05:53:18;3.35;;;0.50;;
75628;SDS011;64213;46.452;16.994;2023-03-15T05:56:20;2.43;;;0.50;;
75628;SDS011;64213;46.452;16.994;2023-03-15T05:59:22;2.08;;;0.50;;
75628;SDS011;64213;46.452;16.994;2023-03-15T06:02:24;4.45;;;1.08;;
75628;SDS011;64213;46.452;16.994;2023-03-15T06:05:26;6.18;;;1.40;;
75628;SDS011;64213;46.452;16.994;2023-03-15T06:08:28;3.65;;;0.90;;
75628;SDS011;64213;46.452;16.994;2023-03-15T06:11:30;4.13;;;0.90;;
75628;SDS011;64213;46.452;16.994;2023-03-15T06:14:32;4.35;;;0.73;;
75628;SDS011;64213;46.452;16.994;2023-03-15T06:17:35;4.30;;;1.00;;
75628;SDS011;64213;46.452;16.994;2023-03-15T06:20:41;1.62;;;0.30;;
75628;SDS011;64213;46.452;16.994;2023-03-15T06:23:43;3.83;;;0.95;;
75628;SDS011;64213;46.452;16.994;2023-03-15T06:26:45;5.23;;;1.10;;
75628;SDS011;64213;46.452;16.994;2023-03-15T06:29:50;4.68;;;0.95;;
75628;SDS011;64213;46.452;16.994;2023-03-15T06:32:53;6.25;;;0.98;;
75628;SDS011;64213;46.452;16.994;2023-03-15T06:35:55;6.25;;;1.48;;
75628;SDS011;64213;46.452;16.994;2023-03-15T06:38:57;5.97;;;1.20;;
75628;SDS011;64213;46.452;16.994;2023-03-15T06:42:00;5.47;;;0.80;;
75628;SDS011;64213;46.452;16.994;2023-03-15T06:45:03;3.83;;;0.77;;
75628;SDS011;64213;46.452;16.994;2023-03-15T06:48:06;6.97;;;0.98;;
75628;SDS011;64213;46.452;16.994;2023-03-15T06:51:10;4.60;;;0.88;;
75628;SDS011;64213;46.452;16.994;2023-03-15T06:54:12;4.62;;;0.95;;
75628;SDS011;64213;46.452;16.994;2023-03-15T06:57:15;3.13;;;0.40;;
75628;SDS011;64213;46.452;16.994;2023-03-15T07:00:18;3.85;;;0.55;;
75628;SDS011;64213;46.452;16.994;2023-03-15T07:03:21;3.87;;;0.68;;
75628;SDS011;64213;46.452;16.994;2023-03-15T07:06:24;3.67;;;0.93;;
75628;SDS011;64213;46.452;16.994;2023-03-15T07:09:28;4.00;;;0.88;;
75628;SDS011;64213;46.452;16.994;2023-03-15T07:12:30;6.37;;;1.10;;
75628;SDS011;64213;46.452;16.994;2023-03-15T07:15:34;4.93;;;0.82;;
75628;SDS011;64213;46.452;16.994;2023-03-15T07:18:37;6.45;;;1.37;;
75628;SDS011;64213;46.452;16.994;2023-03-15T07:21:40;4.60;;;0.88;;
75628;SDS011;64213;46.452;16.994;2023-03-15T07:24:42;7.18;;;1.20;;
75628;SDS011;64213;46.452;16.994;2023-03-15T07:27:44;3.63;;;0.60;;
75628;SDS011;64213;46.452;16.994;2023-03-15T07:30:54;6.28;;;1.10;;
75628;SDS011;64213;46.452;16.994;2023-03-15T07:33:57;6.37;;;1.00;;
75628;SDS011;64213;46.452;16.994;2023-03-15T07:37:00;4.25;;;0.75;;
75628;SDS011;64213;46.452;16.994;2023-03-15T07:40:02;2.03;;;0.43;;
75628;SDS011;64213;46.452;16.994;2023-03-15T07:43:07;2.47;;;0.50;;
75628;SDS011;64213;46.452;16.994;2023-03-15T07:46:10;8.13;;;1.17;;
75628;SDS011;64213;46.452;16.994;2023-03-15T07:49:12;3.28;;;0.65;;
75628;SDS011;64213;46.452;16.994;2023-03-15T07:52:14;3.80;;;0.68;;
75628;SDS011;64213;46.452;16.994;2023-03-15T07:55:17;6.25;;;1.30;;
75628;SDS011;64213;46.452;16.994;2023-03-15T07:58:19;5.40;;;0.73;;
75628;SDS011;64213;46.452;16.994;2023-03-15T08:01:21;6.95;;;1.08;;
75628;SDS011;64213;46.452;16.994;2023-03-15T08:04:23;5.47;;;0.80;;
75628;SDS011;64213;46.452;16.994;2023-03-15T08:07:26;5.18;;;0.75;;
75628;SDS011;64213;46.452;16.994;2023-03-15T08:10:28;4.37;;;0.80;;
75628;SDS011;64213;46.452;16.994;2023-03-15T08:13:30;5.23;;;0.73;;
75628;SDS011;64213;46.452;16.994;2023-03-15T08:16:33;3.85;;;0.68;;
75628;SDS011;64213;46.452;16.994;2023-03-15T08:19:35;7.43;;;1.30;;
75628;SDS011;64213;46.452;16.994;2023-03-15T08:22:37;5.20;;;0.73;;
75628;SDS011;64213;46.452;16.994;2023-03-15T08:25:39;3.08;;;0.47;;
75628;SDS011;64213;46.452;16.994;2023-03-15T08:28:42;8.80;;;1.20;;
75628;SDS011;64213;46.452;16.994;2023-03-15T08:31:44;4.07;;;0.80;;
75628;SDS011;64213;46.452;16.994;2023-03-15T08:34:47;5.07;;;0.90;;
75628;SDS011;64213;46.452;16.994;2023-03-15T08:37:49;6.47;;;1.65;;
75628;SDS011;64213;46.452;16.994;2023-03-15T08:40:54;5.75;;;0.90;;
75628;SDS011;64213;46.452;16.994;2023-03-15T08:43:58;5.23;;;0.50;;
75628;SDS011;64213;46.452;16.994;2023-03-15T08:47:00;3.08;;;0.57;;
75628;SDS011;64213;46.452;16.994;2023-03-15T08:50:03;5.85;;;1.10;;
75628;SDS011;64213;46.452;16.994;2023-03-15T08:53:08;5.18;;;0.90;;
75628;SDS011;64213;46.452;16.994;2023-03-15T08:56:11;8.30;;;1.23;;
75628;SDS011;64213;46.452;16.994;2023-03-15T08:59:14;8.70;;;1.13;;
75628;SDS011;64213;46.452;16.994;2023-03-15T09:02:31;2.35;;;0.50;;
75628;SDS011;64213;46.452;16.994;2023-03-15T09:05:34;1.67;;;0.50;;
75628;SDS011;64213;46.452;16.994;2023-03-15T09:08:37;9.85;;;1.62;;
75628;SDS011;64213;46.452;16.994;2023-03-15T09:11:39;4.12;;;0.60;;
75628;SDS011;64213;46.452;16.994;2023-03-15T09:14:41;4.97;;;0.50;;
75628;SDS011;64213;46.452;16.994;2023-03-15T09:17:44;4.05;;;0.50;;
75628;SDS011;64213;46.452;16.994;2023-03-15T09:20:46;10.77;;;1.58;;
75628;SDS011;64213;46.452;16.994;2023-03-15T09:23:49;7.45;;;1.12;;
75628;SDS011;64213;46.452;16.994;2023-03-15T09:26:51;8.45;;;1.70;;
75628;SDS011;64213;46.452;16.994;2023-03-15T09:29:53;6.73;;;1.00;;
75628;SDS011;64213;46.452;16.994;2023-03-15T09:32:55;4.95;;;0.80;;
75628;SDS011;64213;46.452;16.994;2023-03-15T09:35:58;6.30;;;0.80;;
75628;SDS011;64213;46.452;16.994;2023-03-15T09:39:01;5.82;;;0.88;;
75628;SDS011;64213;46.452;16.994;2023-03-15T09:42:03;2.55;;;0.40;;
75628;SDS011;64213;46.452;16.994;2023-03-15T09:51:55;6.62;;;0.85;;
75628;SDS011;64213;46.452;16.994;2023-03-15T09:58:13;4.50;;;0.80;;
75628;SDS011;64213;46.452;16.994;2023-03-15T10:01:34;5.53;;;0.90;;
75628;SDS011;64213;46.452;16.994;2023-03-15T10:04:38;5.75;;;0.80;;
75628;SDS011;64213;46.452;16.994;2023-03-15T10:07:44;6.20;;;1.00;;
75628;SDS011;64213;46.452;16.994;2023-03-15T10:11:22;3.92;;;0.68;;
75628;SDS011;64213;46.452;16.994;2023-03-15T10:14:28;3.92;;;0.50;;
75628;SDS011;64213;46.452;16.994;2023-03-15T10:17:42;4.03;;;0.60;;
75628;SDS011;64213;46.452;16.994;2023-03-15T10:21:10;6.90;;;0.90;;
75628;SDS011;64213;46.452;16.994;2023-03-15T10:24:17;6.12;;;0.90;;
75628;SDS011;64213;46.452;16.994;2023-03-15T10:27:41;5.53;;;0.95;;
75628;SDS011;64213;46.452;16.994;2023-03-15T10:30:48;6.68;;;0.85;;
75628;SDS011;64213;46.452;16.994;2023-03-15T10:33:54;5.13;;;1.00;;
75628;SDS011;64213;46.452;16.994;2023-03-15T10:36:57;7.93;;;0.93;;
75628;SDS011;64213;46.452;16.994;2023-03-15T10:39:59;8.32;;;1.60;;
75628;SDS011;64213;46.452;16.994;2023-03-15T10:43:01;8.05;;;1.35;;
75628;SDS011;64213;46.452;16.994;2023-03-15T10:46:20;5.40;;;1.00;;
75628;SDS011;64213;46.452;16.994;2023-03-15T10:49:27;7.37;;;1.57;;
75628;SDS011;64213;46.452;16.994;2023-03-15T10:52:37;6.95;;;1.25;;
75628;SDS011;64213;46.452;16.994;2023-03-15T10:55:42;6.95;;;1.40;;
75628;SDS011;64213;46.452;16.994;2023-03-15T10:58:46;8.63;;;1.27;;
75628;SDS011;64213;46.452;16.994;2023-03-15T11:05:17;6.10;;;1.20;;
75628;SDS011;64213;46.452;16.994;2023-03-15T11:08:22;4.28;;;0.90;;
75628;SDS011;64213;46.452;16.994;2023-03-15T11:11:49;8.60;;;1.23;;
75628;SDS011;64213;46.452;16.994;2023-03-15T11:15:10;5.82;;;0.85;;
75628;SDS011;64213;46.452;16.994;2023-03-15T11:18:16;6.47;;;1.40;;
75628;SDS011;64213;46.452;16.994;2023-03-15T11:21:32;6.63;;;1.20;;
75628;SDS011;64213;46.452;16.994;2023-03-15T11:24:36;2.75;;;0.52;;
75628;SDS011;64213;46.452;16.994;2023-03-15T11:27:38;5.47;;;1.02;;
75628;SDS011;64213;46.452;16.994;2023-03-15T11:30:42;7.03;;;1.05;;
75628;SDS011;64213;46.452;16.994;2023-03-15T11:34:08;5.45;;;0.82;;
75628;SDS011;64213;46.452;16.994;2023-03-15T11:37:58;5.00;;;0.87;;
75628;SDS011;64213;46.452;16.994;2023-03-15T11:44:47;5.55;;;1.02;;
75628;SDS011;64213;46.452;16.994;2023-03-15T11:47:56;4.22;;;0.60;;
75628;SDS011;64213;46.452;16.994;2023-03-15T11:51:05;3.87;;;0.62;;
75628;SDS011;64213;46.452;16.994;2023-03-15T11:54:12;4.03;;;0.60;;
75628;SDS011;64213;46.452;16.994;2023-03-15T12:03:44;4.68;;;0.80;;
75628;SDS011;64213;46.452;16.994;2023-03-15T12:06:47;7.75;;;1.73;;
75628;SDS011;64213;46.452;16.994;2023-03-15T12:13:04;4.43;;;0.70;;
75628;SDS011;64213;46.452;16.994;2023-03-15T12:16:09;5.65;;;1.10;;
75628;SDS011;64213;46.452;16.994;2023-03-15T12:19:14;3.15;;;0.60;;
75628;SDS011;64213;46.452;16.994;2023-03-15T12:22:16;6.82;;;0.93;;
75628;SDS011;64213;46.452;16.994;2023-03-15T12:28:32;5.95;;;0.80;;
75628;SDS011;64213;46.452;16.994;2023-03-15T12:31:43;8.40;;;0.85;;
75628;SDS011;64213;46.452;16.994;2023-03-15T12:35:06;4.07;;;0.70;;
75628;SDS011;64213;46.452;16.994;2023-03-15T12:38:17;6.05;;;1.02;;
75628;SDS011;64213;46.452;16.994;2023-03-15T12:41:40;5.13;;;0.67;;
75628;SDS011;64213;46.452;16.994;2023-03-15T12:44:47;4.00;;;0.80;;
75628;SDS011;64213;46.452;16.994;2023-03-15T12:50:56;6.28;;;0.82;;
75628;SDS011;64213;46.452;16.994;2023-03-15T12:54:02;6.72;;;0.90;;
75628;SDS011;64213;46.452;16.994;2023-03-15T12:57:05;6.10;;;0.90;;
75628;SDS011;64213;46.452;16.994;2023-03-15T13:00:12;5.12;;;0.80;;
75628;SDS011;64213;46.452;16.994;2023-03-15T13:03:18;7.15;;;1.05;;
75628;SDS011;64213;46.452;16.994;2023-03-15T13:19:39;6.05;;;1.50;;
75628;SDS011;64213;46.452;16.994;2023-03-15T13:23:03;7.12;;;1.00;;
75628;SDS011;64213;46.452;16.994;2023-03-15T13:29:57;7.70;;;1.47;;
75628;SDS011;64213;46.452;16.994;2023-03-15T13:33:01;5.07;;;0.80;;
75628;SDS011;64213;46.452;16.994;2023-03-15T13:36:16;4.93;;;0.90;;
75628;SDS011;64213;46.452;16.994;2023-03-15T13:39:22;5.15;;;0.73;;
75628;SDS011;64213;46.452;16.994;2023-03-15T13:42:26;3.60;;;0.88;;
75628;SDS011;64213;46.452;16.994;2023-03-15T13:45:29;6.83;;;1.13;;
75628;SDS011;64213;46.452;16.994;2023-03-15T13:48:32;5.05;;;0.60;;
75628;SDS011;64213;46.452;16.994;2023-03-15T13:51:41;4.93;;;0.88;;
75628;SDS011;64213;46.452;16.994;2023-03-15T13:54:44;5.25;;;0.80;;
75628;SDS011;64213;46.452;16.994;2023-03-15T13:57:47;5.00;;;0.80;;
75628;SDS011;64213;46.452;16.994;2023-03-15T14:00:56;5.33;;;0.80;;
75628;SDS011;64213;46.452;16.994;2023-03-15T14:04:03;2.85;;;0.65;;
75628;SDS011;64213;46.452;16.994;2023-03-15T14:07:16;4.40;;;0.80;;
75628;SDS011;64213;46.452;16.994;2023-03-15T14:10:36;6.68;;;0.98;;
75628;SDS011;64213;46.452;16.994;2023-03-15T14:13:55;3.65;;;0.88;;
75628;SDS011;64213;46.452;16.994;2023-03-15T14:17:05;4.60;;;0.90;;
75628;SDS011;64213;46.452;16.994;2023-03-15T14:20:15;3.72;;;0.70;;
75628;SDS011;64213;46.452;16.994;2023-03-15T14:23:21;5.68;;;1.02;;
75628;SDS011;64213;46.452;16.994;2023-03-15T14:26:26;8.13;;;1.40;;
75628;SDS011;64213;46.452;16.994;2023-03-15T14:29:31;4.72;;;0.88;;
75628;SDS011;64213;46.452;16.994;2023-03-15T14:32:37;7.27;;;1.40;;
75628;SDS011;64213;46.452;16.994;2023-03-15T14:35:41;7.80;;;1.23;;
75628;SDS011;64213;46.452;16.994;2023-03-15T14:38:48;8.30;;;1.42;;
75628;SDS011;64213;46.452;16.994;2023-03-15T14:41:53;8.57;;;1.15;;
75628;SDS011;64213;46.452;16.994;2023-03-15T14:44:55;6.65;;;1.40;;
75628;SDS011;64213;46.452;16.994;2023-03-15T14:47:58;6.67;;;1.50;;
75628;SDS011;64213;46.452;16.994;2023-03-15T14:51:05;5.82;;;1.20;;
75628;SDS011;64213;46.452;16.994;2023-03-15T14:54:07;4.57;;;0.80;;
75628;SDS011;64213;46.452;16.994;2023-03-15T14:57:11;4.37;;;0.50;;
75628;SDS011;64213;46.452;16.994;2023-03-15T15:00:15;5.78;;;1.30;;
75628;SDS011;64213;46.452;16.994;2023-03-15T15:07:02;5.37;;;1.30;;
75628;SDS011;64213;46.452;16.994;2023-03-15T15:10:04;6.00;;;1.17;;
75628;SDS011;64213;46.452;16.994;2023-03-15T15:13:19;6.90;;;1.30;;
75628;SDS011;64213;46.452;16.994;2023-03-15T15:16:26;6.22;;;1.33;;
75628;SDS011;64213;46.452;16.994;2023-03-15T15:19:28;8.37;;;2.03;;
75628;SDS011;64213;46.452;16.994;2023-03-15T15:22:31;5.50;;;0.95;;
75628;SDS011;64213;46.452;16.994;2023-03-15T15:25:33;6.60;;;1.00;;
75628;SDS011;64213;46.452;16.994;2023-03-15T15:28:36;7.07;;;1.65;;
75628;SDS011;64213;46.452;16.994;2023-03-15T15:31:38;5.32;;;0.90;;
75628;SDS011;64213;46.452;16.994;2023-03-15T15:34:42;6.70;;;1.03;;
75628;SDS011;64213;46.452;16.994;2023-03-15T15:37:46;5.85;;;0.98;;
75628;SDS011;64213;46.452;16.994;2023-03-15T15:40:49;4.97;;;0.95;;
75628;SDS011;64213;46.452;16.994;2023-03-15T15:43:52;3.67;;;0.45;;
75628;SDS011;64213;46.452;16.994;2023-03-15T15:46:55;6.90;;;1.05;;
75628;SDS011;64213;46.452;16.994;2023-03-15T15:49:58;7.67;;;1.33;;
75628;SDS011;64213;46.452;16.994;2023-03-15T15:53:01;5.12;;;0.60;;
75628;SDS011;64213;46.452;16.994;2023-03-15T15:56:07;3.70;;;0.65;;
75628;SDS011;64213;46.452;16.994;2023-03-15T15:59:13;4.00;;;0.90;;
75628;SDS011;64213;46.452;16.994;2023-03-15T16:02:16;5.05;;;1.10;;
75628;SDS011;64213;46.452;16.994;2023-03-15T16:05:24;7.43;;;2.10;;
75628;SDS011;64213;46.452;16.994;2023-03-15T16:08:31;7.87;;;1.40;;
75628;SDS011;64213;46.452;16.994;2023-03-15T16:11:37;11.38;;;2.12;;
75628;SDS011;64213;46.452;16.994;2023-03-15T16:14:40;9.10;;;1.87;;
75628;SDS011;64213;46.452;16.994;2023-03-15T16:17:44;8.57;;;2.08;;
75628;SDS011;64213;46.452;16.994;2023-03-15T16:20:49;7.20;;;1.37;;
75628;SDS011;64213;46.452;16.994;2023-03-15T16:23:57;6.40;;;1.37;;
75628;SDS011;64213;46.452;16.994;2023-03-15T16:27:05;4.78;;;1.10;;
75628;SDS011;64213;46.452;16.994;2023-03-15T16:30:18;3.90;;;0.77;;
75628;SDS011;64213;46.452;16.994;2023-03-15T16:33:32;1.85;;;0.52;;
75628;SDS011;64213;46.452;16.994;2023-03-15T16:36:37;5.90;;;1.20;;
75628;SDS011;64213;46.452;16.994;2023-03-15T16:39:45;5.78;;;0.93;;
75628;SDS011;64213;46.452;16.994;2023-03-15T16:42:50;7.60;;;0.90;;
75628;SDS011;64213;46.452;16.994;2023-03-15T16:45:53;3.97;;;0.85;;
75628;SDS011;64213;46.452;16.994;2023-03-15T16:48:56;8.35;;;1.60;;
75628;SDS011;64213;46.452;16.994;2023-03-15T16:51:59;8.17;;;1.87;;
75628;SDS011;64213;46.452;16.994;2023-03-15T16:55:04;7.72;;;1.08;;
75628;SDS011;64213;46.452;16.994;2023-03-15T16:58:14;5.32;;;1.40;;
75628;SDS011;64213;46.452;16.994;2023-03-15T17:01:19;4.85;;;1.05;;
75628;SDS011;64213;46.452;16.994;2023-03-15T17:04:22;6.47;;;1.25;;
75628;SDS011;64213;46.452;16.994;2023-03-15T17:07:35;7.03;;;1.00;;
75628;SDS011;64213;46.452;16.994;2023-03-15T17:10:42;6.18;;;1.42;;
75628;SDS011;64213;46.452;16.994;2023-03-15T17:13:46;10.50;;;1.58;;
75628;SDS011;64213;46.452;16.994;2023-03-15T17:16:49;10.82;;;2.17;;
75628;SDS011;64213;46.452;16.994;2023-03-15T17:19:52;11.10;;;1.62;;
75628;SDS011;64213;46.452;16.994;2023-03-15T17:23:02;5.13;;;1.10;;
75628;SDS011;64213;46.452;16.994;2023-03-15T17:26:10;8.05;;;1.42;;
75628;SDS011;64213;46.452;16.994;2023-03-15T17:29:18;6.70;;;1.55;;
75628;SDS011;64213;46.452;16.994;2023-03-15T17:32:21;10.32;;;1.30;;
75628;SDS011;64213;46.452;16.994;2023-03-15T17:35:30;5.22;;;1.15;;
75628;SDS011;64213;46.452;16.994;2023-03-15T17:38:38;2.87;;;0.70;;
75628;SDS011;64213;46.452;16.994;2023-03-15T17:41:46;6.43;;;1.27;;
75628;SDS011;64213;46.452;16.994;2023-03-15T17:44:50;6.53;;;1.40;;
75628;SDS011;64213;46.452;16.994;2023-03-15T17:47:53;3.92;;;0.82;;
75628;SDS011;64213;46.452;16.994;2023-03-15T17:50:59;6.62;;;1.25;;
75628;SDS011;64213;46.452;16.994;2023-03-15T17:54:10;9.73;;;1.27;;
75628;SDS011;64213;46.452;16.994;2023-03-15T17:57:15;11.88;;;1.80;;
75628;SDS011;64213;46.452;16.994;2023-03-15T18:00:19;5.32;;;1.35;;
75628;SDS011;64213;46.452;16.994;2023-03-15T18:03:22;6.85;;;1.50;;
75628;SDS011;64213;46.452;16.994;2023-03-15T18:06:30;7.20;;;1.80;;
75628;SDS011;64213;46.452;16.994;2023-03-15T18:09:34;6.33;;;0.93;;
75628;SDS011;64213;46.452;16.994;2023-03-15T18:12:39;5.00;;;0.85;;
75628;SDS011;64213;46.452;16.994;2023-03-15T18:15:45;6.62;;;1.23;;
75628;SDS011;64213;46.452;16.994;2023-03-15T18:18:51;9.02;;;1.55;;
75628;SDS011;64213;46.452;16.994;2023-03-15T18:21:54;8.00;;;1.70;;
75628;SDS011;64213;46.452;16.994;2023-03-15T18:24:57;6.30;;;1.30;;
75628;SDS011;64213;46.452;16.994;2023-03-15T18:28:00;3.08;;;0.68;;
75628;SDS011;64213;46.452;16.994;2023-03-15T18:31:11;9.20;;;1.90;;
75628;SDS011;64213;46.452;16.994;2023-03-15T18:34:16;4.43;;;0.95;;
75628;SDS011;64213;46.452;16.994;2023-03-15T18:37:23;7.53;;;1.80;;
75628;SDS011;64213;46.452;16.994;2023-03-15T18:40:27;6.73;;;1.90;;
75628;SDS011;64213;46.452;16.994;2023-03-15T18:43:32;10.38;;;3.12;;
75628;SDS011;64213;46.452;16.994;2023-03-15T18:46:35;8.90;;;2.15;;
75628;SDS011;64213;46.452;16.994;2023-03-15T18:49:38;9.15;;;1.98;;
75628;SDS011;64213;46.452;16.994;2023-03-15T18:52:41;10.93;;;2.20;;
75628;SDS011;64213;46.452;16.994;2023-03-15T18:55:44;9.57;;;1.67;;
75628;SDS011;64213;46.452;16.994;2023-03-15T18:58:48;7.70;;;1.90;;
75628;SDS011;64213;46.452;16.994;2023-03-15T19:01:52;10.43;;;2.60;;
75628;SDS011;64213;46.452;16.994;2023-03-15T19:04:57;8.73;;;2.55;;
75628;SDS011;64213;46.452;16.994;2023-03-15T19:08:00;11.55;;;3.17;;
75628;SDS011;64213;46.452;16.994;2023-03-15T19:11:06;6.00;;;1.60;;
75628;SDS011;64213;46.452;16.994;2023-03-15T19:14:10;6.22;;;1.25;;
75628;SDS011;64213;46.452;16.994;2023-03-15T19:17:13;6.60;;;1.70;;
75628;SDS011;64213;46.452;16.994;2023-03-15T19:20:17;10.10;;;1.50;;
75628;SDS011;64213;46.452;16.994;2023-03-15T19:23:24;3.08;;;0.73;;
75628;SDS011;64213;46.452;16.994;2023-03-15T19:26:30;7.03;;;1.40;;
75628;SDS011;64213;46.452;16.994;2023-03-15T19:29:34;6.18;;;1.33;;
75628;SDS011;64213;46.452;16.994;2023-03-15T19:32:37;8.50;;;1.80;;
75628;SDS011;64213;46.452;16.994;2023-03-15T19:35:45;6.12;;;1.48;;
75628;SDS011;64213;46.452;16.994;2023-03-15T19:38:47;7.12;;;1.65;;
75628;SDS011;64213;46.452;16.994;2023-03-15T19:41:52;2.03;;;0.50;;
75628;SDS011;64213;46.452;16.994;2023-03-15T19:44:56;6.05;;;1.35;;
75628;SDS011;64213;46.452;16.994;2023-03-15T19:47:59;2.22;;;0.50;;
75628;SDS011;64213;46.452;16.994;2023-03-15T19:51:03;3.12;;;0.50;;
75628;SDS011;64213;46.452;16.994;2023-03-15T19:54:07;4.85;;;0.73;;
75628;SDS011;64213;46.452;16.994;2023-03-15T19:57:12;7.03;;;1.03;;
75628;SDS011;64213;46.452;16.994;2023-03-15T20:00:16;4.18;;;0.70;;
75628;SDS011;64213;46.452;16.994;2023-03-15T20:03:22;2.22;;;0.50;;
75628;SDS011;64213;46.452;16.994;2023-03-15T20:06:28;4.12;;;0.73;;
75628;SDS011;64213;46.452;16.994;2023-03-15T20:09:32;8.82;;;1.90;;
75628;SDS011;64213;46.452;16.994;2023-03-15T20:12:40;4.97;;;1.10;;
75628;SDS011;64213;46.452;16.994;2023-03-15T20:15:44;8.07;;;1.90;;
75628;SDS011;64213;46.452;16.994;2023-03-15T20:18:48;9.13;;;1.75;;
75628;SDS011;64213;46.452;16.994;2023-03-15T20:21:59;8.88;;;2.05;;
75628;SDS011;64213;46.452;16.994;2023-03-15T20:25:02;12.15;;;2.12;;
75628;SDS011;64213;46.452;16.994;2023-03-15T20:28:06;1.90;;;0.67;;
75628;SDS011;64213;46.452;16.994;2023-03-15T20:31:11;5.90;;;1.00;;